createdAt,value
2022-11-04T00:02:33.441Z,36.03
2022-11-04T00:07:54.353Z,33.23
2022-11-04T00:12:56.677Z,36.47
2022-11-04T00:17:58.963Z,35.60
2022-11-04T00:23:19.710Z,34.77
2022-11-04T00:28:40.459Z,36.57
2022-11-04T00:33:42.773Z,39.33
2022-11-04T00:38:45.275Z,51.50
2022-11-04T00:43:47.571Z,38.83
2022-11-04T00:48:50.267Z,34.97
2022-11-04T00:53:52.821Z,39.27
2022-11-04T00:58:55.169Z,39.00
2022-11-04T01:03:57.565Z,36.53
2022-11-04T01:09:02.685Z,30.50
2022-11-04T01:14:05.709Z,31.30
2022-11-04T01:19:08.230Z,29.27
2022-11-04T01:24:10.674Z,32.63
2022-11-04T01:29:13.085Z,31.57
2022-11-04T01:34:15.526Z,31.93
2022-11-04T01:39:17.981Z,31.53
2022-11-04T01:44:42.267Z,29.63
2022-11-04T01:49:48.871Z,29.13
2022-11-04T01:54:55.568Z,32.97
2022-11-04T02:00:02.036Z,32.40
2022-11-04T02:05:14.015Z,34.17
2022-11-04T02:10:17.268Z,29.33
2022-11-04T02:15:23.862Z,24.83
2022-11-04T02:20:37.185Z,33.63
2022-11-04T02:26:14.062Z,34.77
2022-11-04T02:31:19.262Z,32.00
2022-11-04T02:36:43.558Z,29.47
2022-11-04T02:41:58.522Z,34.70
2022-11-04T02:47:05.080Z,27.77
2022-11-04T02:52:11.935Z,25.50
2022-11-04T02:57:19.571Z,32.23
2022-11-04T03:02:48.977Z,31.27
2022-11-04T03:07:54.238Z,32.30
2022-11-04T03:13:13.880Z,30.33
2022-11-04T03:18:37.136Z,29.93
2022-11-04T03:23:40.315Z,33.27
2022-11-04T03:29:06.181Z,30.47
2022-11-04T03:34:11.214Z,33.00
2022-11-04T03:39:13.610Z,31.27
2022-11-04T03:44:16.034Z,33.50
2022-11-04T03:49:19.605Z,30.67
2022-11-04T03:54:22.010Z,33.53
2022-11-04T03:59:45.032Z,47.97
2022-11-04T04:05:08.568Z,40.87
2022-11-04T04:10:36.365Z,81.33
2022-11-04T04:16:07.960Z,35.47
2022-11-04T04:21:17.200Z,38.93
2022-11-04T04:26:40.550Z,279.50
2022-11-04T04:31:57.777Z,69.87
2022-11-04T04:37:10.398Z,40.30
2022-11-04T04:42:31.164Z,50.33
2022-11-04T04:47:53.885Z,38.53
2022-11-04T04:52:58.104Z,36.20
2022-11-04T04:58:00.410Z,42.70
2022-11-04T05:03:02.790Z,46.47
2022-11-04T05:08:09.232Z,44.07
2022-11-04T05:13:30.071Z,38.47
2022-11-04T05:18:32.726Z,42.43
2022-11-04T05:23:35.786Z,44.10
2022-11-04T05:28:38.832Z,51.67
2022-11-04T05:33:41.339Z,43.37
2022-11-04T05:38:43.812Z,43.93
2022-11-04T05:43:46.104Z,38.30
2022-11-04T05:48:48.486Z,42.20
2022-11-04T05:53:51.801Z,39.83
2022-11-04T05:58:54.290Z,40.77
2022-11-04T06:03:58.008Z,44.63
2022-11-04T06:09:00.566Z,41.50
2022-11-04T06:14:02.955Z,40.53
2022-11-04T06:19:08.677Z,35.97
2022-11-04T06:24:13.204Z,39.77
2022-11-04T06:29:15.492Z,51.20
2022-11-04T06:34:17.787Z,46.37
2022-11-04T06:39:20.299Z,44.63
2022-11-04T06:44:22.735Z,53.53
2022-11-04T06:49:25.106Z,55.23
2022-11-04T06:54:27.399Z,40.90
2022-11-04T06:59:29.761Z,39.50
2022-11-04T07:04:32.084Z,36.97
2022-11-04T07:09:35.409Z,39.17
2022-11-04T07:14:37.734Z,34.93
2022-11-04T07:19:40.070Z,40.13
2022-11-04T07:24:43.591Z,34.20
2022-11-04T07:29:46.274Z,34.97
2022-11-04T07:34:48.666Z,31.03
2022-11-04T07:39:50.958Z,33.53
2022-11-04T07:44:53.362Z,32.80
2022-11-04T07:49:58.294Z,32.90
2022-11-04T07:55:01.080Z,39.70
2022-11-04T08:00:09.062Z,35.20
2022-11-04T08:05:14.956Z,32.80
2022-11-04T08:10:20.137Z,34.23
2022-11-04T08:15:22.569Z,36.57
2022-11-04T08:20:25.064Z,29.13
2022-11-04T08:25:27.438Z,33.47
2022-11-04T08:30:29.801Z,34.37
2022-11-04T08:35:40.623Z,44.20
2022-11-04T08:40:44.353Z,58.97
2022-11-04T08:45:46.897Z,39.63
2022-11-04T08:50:51.425Z,32.97
2022-11-04T08:55:54.225Z,32.20
2022-11-04T09:00:56.705Z,33.43
2022-11-04T09:05:59.043Z,35.53
2022-11-04T09:11:01.555Z,31.10
2022-11-04T09:16:04.660Z,33.03
2022-11-04T09:21:08.537Z,36.93
2022-11-04T09:26:14.196Z,32.87
2022-11-04T09:31:19.062Z,33.30
2022-11-04T09:36:21.785Z,32.17
2022-11-04T09:41:32.924Z,32.37
2022-11-04T09:46:36.609Z,31.40
2022-11-04T09:51:54.332Z,30.43
2022-11-04T09:57:01.492Z,33.23
2022-11-04T10:02:22.568Z,37.23
2022-11-04T10:07:45.950Z,40.00
2022-11-04T10:12:51.298Z,35.17
2022-11-04T10:18:15.273Z,36.90
2022-11-04T10:23:33.882Z,39.73
2022-11-04T10:28:42.499Z,39.83
2022-11-04T10:33:56.379Z,41.37
2022-11-04T10:39:02.058Z,37.13
2022-11-04T10:44:26.200Z,35.77
2022-11-04T10:49:36.478Z,42.63
2022-11-04T10:54:45.216Z,36.10
2022-11-04T11:00:05.508Z,32.80
2022-11-04T11:05:20.084Z,31.43
2022-11-04T11:10:29.763Z,35.23
2022-11-04T11:15:38.010Z,32.03
2022-11-04T11:20:41.211Z,30.40
2022-11-04T11:25:50.927Z,31.23
2022-11-04T11:30:58.709Z,33.80
2022-11-04T11:36:12.082Z,31.23
2022-11-04T11:41:26.184Z,34.13
2022-11-04T11:46:32.612Z,33.27
2022-11-04T11:51:37.778Z,28.13
2022-11-04T11:57:12.089Z,31.53
2022-11-04T12:02:25.625Z,31.03
2022-11-04T12:13:24.828Z,34.53
2022-11-04T12:19:04.717Z,34.17
2022-11-04T12:24:16.184Z,31.33
2022-11-04T12:29:47.595Z,28.90
2022-11-04T12:35:15.118Z,29.83
2022-11-04T12:40:36.262Z,31.70
2022-11-04T12:45:38.763Z,45.87
2022-11-04T12:51:01.521Z,36.43
2022-11-04T12:56:09.360Z,30.60
2022-11-04T13:01:18.014Z,28.13
2022-11-04T13:06:42.329Z,29.97
2022-11-04T13:12:05.247Z,40.90
2022-11-04T13:17:12.631Z,33.97
2022-11-04T13:22:25.851Z,54.57
2022-11-04T13:27:35.715Z,85.97
2022-11-04T13:32:48.614Z,73.50
2022-11-04T13:38:16.014Z,45.47
2022-11-04T13:43:39.512Z,36.03
2022-11-04T13:48:54.254Z,39.20
2022-11-04T13:53:58.104Z,37.23
2022-11-04T13:59:23.820Z,55.17
2022-11-04T14:04:30.160Z,48.50
2022-11-04T14:09:51.655Z,56.40
2022-11-04T14:15:08.075Z,42.20
2022-11-04T14:20:23.774Z,40.53
2022-11-04T14:25:36.833Z,47.50
2022-11-04T14:30:50.091Z,47.80
2022-11-04T14:35:54.761Z,53.37
2022-11-04T14:41:30.644Z,40.13
2022-11-04T14:46:40.742Z,46.50
2022-11-04T14:51:43.623Z,53.10
2022-11-04T14:56:47.058Z,53.00
2022-11-04T15:01:52.353Z,50.97
2022-11-04T15:06:56.366Z,44.37
2022-11-04T15:12:32.193Z,53.43
2022-11-04T15:17:34.932Z,72.90
2022-11-04T15:22:43.508Z,48.07
2022-11-04T15:27:46.060Z,49.03
2022-11-04T15:33:02.306Z,56.50
2022-11-04T15:38:10.854Z,62.73
2022-11-04T15:43:16.164Z,59.33
2022-11-04T15:48:34.932Z,60.47
2022-11-04T15:53:51.654Z,55.27
2022-11-04T15:58:56.032Z,51.97
2022-11-04T16:04:01.171Z,59.47
2022-11-04T16:09:27.290Z,58.30
2022-11-04T16:14:30.412Z,57.20
2022-11-04T16:19:32.857Z,61.03
2022-11-04T16:24:38.278Z,54.27
2022-11-04T16:29:43.848Z,52.37
2022-11-04T16:34:51.373Z,57.13
2022-11-04T16:39:53.858Z,64.00
2022-11-04T16:45:01.806Z,237.20
2022-11-04T16:50:16.469Z,239.63
2022-11-04T16:55:19.308Z,154.50
2022-11-04T17:00:24.538Z,85.80
2022-11-04T17:05:27.110Z,83.77
2022-11-04T17:10:29.727Z,82.13
2022-11-04T17:15:32.280Z,106.37
2022-11-04T17:20:34.730Z,94.70
2022-11-04T17:25:37.264Z,104.40
2022-11-04T17:30:40.788Z,103.10
2022-11-04T17:35:45.805Z,109.63
2022-11-04T17:41:06.869Z,84.37
2022-11-04T17:46:32.466Z,83.67
2022-11-04T17:51:35.865Z,88.80
2022-11-04T17:56:38.817Z,122.13
2022-11-04T18:01:43.413Z,161.97
2022-11-04T18:06:46.571Z,154.37
2022-11-04T18:12:07.421Z,127.43
2022-11-04T18:17:10.171Z,115.50
2022-11-04T18:22:12.586Z,314.67
2022-11-04T18:27:16.374Z,144.93
2022-11-04T18:32:18.785Z,183.17
2022-11-04T18:37:21.180Z,124.63
2022-11-04T18:42:23.603Z,140.27
2022-11-04T18:47:26.881Z,155.50
2022-11-04T18:52:29.427Z,131.67
2022-11-04T18:57:31.779Z,129.57
2022-11-04T19:02:34.295Z,161.80
2022-11-04T19:07:36.865Z,118.20
2022-11-04T19:12:58.202Z,131.67
2022-11-04T19:18:00.555Z,135.70
2022-11-04T19:23:03.397Z,156.63
2022-11-04T19:28:32.704Z,149.33
2022-11-04T19:33:29.509Z,125.17
2022-11-04T19:38:32.181Z,238.90
2022-11-04T19:43:35.399Z,152.10
2022-11-04T19:48:37.725Z,103.90
2022-11-04T19:53:40.151Z,81.93
2022-11-04T19:58:43.540Z,78.80
2022-11-04T20:03:46.011Z,70.57
2022-11-04T20:08:49.071Z,68.80
2022-11-04T20:13:52.386Z,71.97
2022-11-04T20:19:01.350Z,82.13
2022-11-04T20:24:06.612Z,108.33
2022-11-04T20:29:10.253Z,105.23
2022-11-04T20:34:14.208Z,121.83
2022-11-04T20:39:19.234Z,130.67
2022-11-04T20:44:22.107Z,98.17
2022-11-04T20:49:24.468Z,93.80
2022-11-04T20:54:27.103Z,167.87
2022-11-04T20:59:29.698Z,127.03
2022-11-04T21:04:36.150Z,101.77
2022-11-04T21:09:39.032Z,112.33
2022-11-04T21:14:41.448Z,85.93
2022-11-04T21:19:46.501Z,74.57
2022-11-04T21:24:48.936Z,80.93
2022-11-04T21:29:51.383Z,80.20
2022-11-04T21:34:53.792Z,75.17
2022-11-04T21:39:56.221Z,69.07
2022-11-04T21:44:58.593Z,70.57
2022-11-04T21:50:01.014Z,70.00
2022-11-04T21:55:03.548Z,62.23
2022-11-04T22:00:08.921Z,61.13
2022-11-04T22:05:11.929Z,67.10
2022-11-04T22:10:14.286Z,63.80
2022-11-04T22:15:36.670Z,65.17
2022-11-04T22:20:39.056Z,68.80
2022-11-04T22:25:45.864Z,63.97
2022-11-04T22:30:51.362Z,67.63
2022-11-04T22:35:53.782Z,67.30
2022-11-04T22:40:57.390Z,64.40
2022-11-04T22:46:12.298Z,72.03
2022-11-04T22:51:15.048Z,102.67
2022-11-04T22:56:17.429Z,80.77
2022-11-04T23:01:19.995Z,59.10
2022-11-04T23:06:22.590Z,59.70
2022-11-04T23:11:45.867Z,57.23
2022-11-04T23:17:09.278Z,55.70
2022-11-04T23:22:30.405Z,53.87
2022-11-04T23:28:03.501Z,53.43
2022-11-04T23:33:11.698Z,67.97
2022-11-04T23:38:14.647Z,63.50
2022-11-04T23:43:17.050Z,67.90
2022-11-04T23:48:37.929Z,64.97
2022-11-04T23:53:59.149Z,62.20
2022-11-04T23:59:24.564Z,59.80
